createdAt,value
2018-01-18T00:01:37.490Z,1.57
2018-01-18T00:04:05.844Z,2.70
2018-01-18T00:06:34.165Z,1.40
2018-01-18T00:09:02.482Z,2.60
2018-01-18T00:11:31.662Z,1.50
2018-01-18T00:14:00.774Z,2.10
2018-01-18T00:16:29.140Z,1.20
2018-01-18T00:18:57.476Z,1.70
2018-01-18T00:21:25.829Z,1.70
2018-01-18T00:23:54.124Z,1.77
2018-01-18T00:26:22.409Z,1.60
2018-01-18T00:28:50.776Z,1.53
2018-01-18T00:31:19.078Z,2.27
2018-01-18T00:33:47.402Z,1.30
2018-01-18T00:36:15.680Z,1.53
2018-01-18T00:38:43.973Z,1.00
2018-01-18T00:41:12.371Z,1.50
2018-01-18T00:43:40.675Z,1.20
2018-01-18T00:46:09.922Z,1.53
2018-01-18T00:48:39.016Z,1.53
2018-01-18T00:51:07.308Z,1.03
2018-01-18T00:53:35.644Z,1.40
2018-01-18T00:56:04.691Z,1.67
2018-01-18T00:58:33.012Z,1.43
2018-01-18T01:01:01.332Z,1.40
2018-01-18T01:03:29.743Z,2.10
2018-01-18T01:05:58.760Z,0.97
2018-01-18T01:08:27.060Z,1.00
2018-01-18T01:10:55.358Z,0.93
2018-01-18T01:13:23.667Z,1.50
2018-01-18T01:15:51.955Z,1.10
2018-01-18T01:18:21.191Z,1.80
2018-01-18T01:20:49.488Z,1.60
2018-01-18T01:23:17.821Z,1.10
2018-01-18T01:25:46.118Z,0.93
2018-01-18T01:28:14.419Z,1.63
2018-01-18T01:30:43.492Z,1.67
2018-01-18T01:33:12.659Z,1.13
2018-01-18T01:35:41.765Z,1.10
2018-01-18T01:41:13.073Z,1.60
2018-01-18T01:43:41.380Z,0.73
2018-01-18T01:46:09.736Z,1.03
2018-01-18T01:48:39.663Z,0.70
2018-01-18T01:51:08.711Z,1.23
2018-01-18T01:53:37.121Z,1.20
2018-01-18T01:56:05.605Z,1.00
2018-01-18T01:58:33.880Z,1.00
2018-01-18T02:01:08.613Z,1.43
2018-01-18T02:03:36.919Z,0.90
2018-01-18T02:06:05.234Z,1.60
2018-01-18T02:08:33.560Z,1.77
2018-01-18T02:11:01.909Z,1.40
2018-01-18T02:13:30.207Z,1.50
2018-01-18T02:15:58.864Z,1.47
2018-01-18T02:18:27.333Z,1.70
2018-01-18T02:20:56.728Z,1.43
2018-01-18T02:23:25.082Z,1.30
2018-01-18T02:25:58.658Z,1.57
2018-01-18T02:28:29.497Z,1.60
2018-01-18T02:30:58.215Z,1.77
2018-01-18T02:33:26.807Z,2.20
2018-01-18T02:35:55.123Z,1.17
2018-01-18T02:38:23.528Z,1.73
2018-01-18T02:40:51.911Z,1.30
2018-01-18T02:43:20.423Z,1.40
2018-01-18T02:45:48.783Z,1.93
2018-01-18T02:48:17.080Z,2.33
2018-01-18T02:50:46.432Z,1.50
2018-01-18T02:53:14.728Z,2.20
2018-01-18T02:55:44.146Z,1.33
2018-01-18T02:58:12.428Z,1.40
2018-01-18T03:00:40.707Z,2.00
2018-01-18T03:03:09.024Z,1.73
2018-01-18T03:05:37.322Z,1.57
2018-01-18T03:08:05.643Z,2.60
2018-01-18T03:10:33.960Z,2.00
2018-01-18T03:13:02.259Z,1.53
2018-01-18T03:15:30.931Z,1.90
2018-01-18T03:17:59.283Z,1.80
2018-01-18T03:20:27.592Z,1.33
2018-01-18T03:22:55.919Z,1.90
2018-01-18T03:25:24.202Z,2.70
2018-01-18T03:27:52.493Z,1.80
2018-01-18T03:30:20.880Z,1.40
2018-01-18T03:32:49.196Z,1.67
2018-01-18T03:35:17.491Z,1.00
2018-01-18T03:37:45.897Z,1.77
2018-01-18T03:40:14.196Z,2.70
2018-01-18T03:42:42.508Z,0.67
2018-01-18T03:45:11.566Z,1.50
2018-01-18T03:47:39.892Z,1.63
2018-01-18T03:50:08.172Z,2.00
2018-01-18T03:52:36.464Z,2.17
2018-01-18T03:55:04.799Z,1.80
2018-01-18T03:57:33.889Z,2.50
2018-01-18T04:00:02.205Z,1.77
2018-01-18T04:02:30.491Z,2.23
2018-01-18T04:04:58.819Z,1.87
2018-01-18T04:07:27.100Z,2.20
2018-01-18T04:09:56.162Z,2.03
2018-01-18T04:12:25.241Z,1.87
2018-01-18T04:14:54.335Z,2.10
2018-01-18T04:17:22.724Z,1.83
2018-01-18T04:19:51.008Z,2.13
2018-01-18T04:22:20.081Z,2.40
2018-01-18T04:24:48.360Z,1.20
2018-01-18T04:27:16.671Z,1.50
2018-01-18T04:29:45.687Z,3.20
2018-01-18T04:32:15.778Z,1.67
2018-01-18T04:34:44.057Z,1.33
2018-01-18T04:37:13.126Z,3.00
2018-01-18T04:39:42.167Z,1.77
2018-01-18T04:42:10.486Z,1.43
2018-01-18T04:44:38.777Z,2.70
2018-01-18T04:47:07.056Z,1.10
2018-01-18T04:49:35.386Z,1.53
2018-01-18T04:52:03.667Z,1.10
2018-01-18T04:54:31.962Z,1.60
2018-01-18T04:57:00.289Z,1.93
2018-01-18T04:59:28.609Z,2.00
2018-01-18T05:01:56.943Z,1.67
2018-01-18T05:04:26.120Z,1.50
2018-01-18T05:06:55.227Z,1.60
2018-01-18T05:09:23.539Z,2.23
2018-01-18T05:11:51.837Z,1.80
2018-01-18T05:14:20.959Z,2.20
2018-01-18T05:16:49.247Z,2.27
2018-01-18T05:19:17.572Z,2.37
2018-01-18T05:21:45.861Z,1.40
2018-01-18T05:24:14.180Z,1.67
2018-01-18T05:26:42.500Z,1.80
2018-01-18T05:29:10.825Z,2.10
2018-01-18T05:31:39.884Z,3.67
2018-01-18T05:34:08.953Z,1.47
2018-01-18T05:36:38.116Z,1.70
2018-01-18T05:39:06.400Z,1.50
2018-01-18T05:41:34.706Z,1.70
2018-01-18T05:44:03.037Z,2.50
2018-01-18T05:46:31.365Z,2.10
2018-01-18T05:48:59.667Z,2.73
2018-01-18T05:51:28.444Z,2.30
2018-01-18T05:53:56.736Z,0.53
2018-01-18T05:56:25.048Z,2.80
2018-01-18T05:58:53.367Z,1.20
2018-01-18T06:01:21.728Z,1.57
2018-01-18T06:03:50.031Z,2.10
2018-01-18T06:06:18.324Z,1.57
2018-01-18T06:08:46.640Z,1.92
2018-01-18T06:11:15.017Z,1.53
2018-01-18T06:13:43.306Z,1.63
2018-01-18T06:16:11.602Z,1.70
2018-01-18T06:18:40.816Z,1.00
2018-01-18T06:21:09.247Z,1.40
2018-01-18T06:23:37.617Z,1.50
2018-01-18T06:26:05.907Z,1.37
2018-01-18T06:28:34.228Z,1.20
2018-01-18T06:31:02.591Z,1.00
2018-01-18T06:33:30.938Z,1.13
2018-01-18T06:35:59.303Z,1.60
2018-01-18T06:38:28.603Z,1.53
2018-01-18T06:40:57.177Z,1.40
2018-01-18T06:43:26.548Z,1.20
2018-01-18T06:45:54.872Z,1.40
2018-01-18T06:48:23.186Z,1.05
2018-01-18T06:50:53.167Z,0.97
2018-01-18T06:53:21.496Z,1.00
2018-01-18T06:55:49.827Z,1.10
2018-01-18T06:58:19.080Z,0.87
2018-01-18T07:00:47.497Z,0.60
2018-01-18T07:03:15.820Z,0.52
2018-01-18T07:05:45.506Z,1.10
2018-01-18T07:08:15.828Z,0.70
2018-01-18T07:10:54.472Z,0.90
2018-01-18T07:13:22.847Z,0.33
2018-01-18T07:15:51.571Z,0.50
2018-01-18T07:18:19.993Z,1.10
2018-01-18T07:20:48.302Z,0.80
2018-01-18T07:23:16.623Z,0.40
2018-01-18T07:25:44.944Z,0.50
2018-01-18T07:28:19.197Z,0.40
2018-01-18T07:30:47.546Z,0.60
2018-01-18T07:33:15.858Z,0.50
2018-01-18T07:38:44.902Z,0.70
2018-01-18T07:41:13.192Z,0.30
2018-01-18T07:43:48.441Z,0.30
2018-01-18T07:46:16.870Z,0.60
2018-01-18T07:48:45.185Z,0.30
2018-01-18T07:51:13.515Z,0.40
2018-01-18T07:53:41.820Z,0.37
2018-01-18T07:56:15.870Z,0.50
2018-01-18T07:58:44.951Z,0.30
2018-01-18T08:01:14.282Z,0.40
2018-01-18T08:03:47.984Z,0.50
2018-01-18T08:06:32.285Z,0.40
2018-01-18T08:11:54.119Z,0.30
2018-01-18T08:14:22.428Z,0.30
2018-01-18T08:16:50.714Z,0.50
2018-01-18T08:19:19.053Z,0.40
2018-01-18T08:22:00.568Z,0.40
2018-01-18T08:24:29.562Z,0.40
2018-01-18T08:27:02.310Z,0.40
2018-01-18T08:29:30.690Z,0.50
2018-01-18T08:32:00.526Z,0.40
2018-01-18T08:34:31.823Z,0.30
2018-01-18T08:37:00.453Z,0.40
2018-01-18T08:39:30.136Z,0.40
2018-01-18T08:42:00.174Z,0.50
2018-01-18T08:47:18.157Z,0.40
2018-01-18T08:49:59.516Z,0.40
2018-01-18T08:52:28.354Z,0.40
2018-01-18T08:54:56.667Z,0.40
2018-01-18T08:57:25.002Z,0.40
2018-01-18T08:59:55.250Z,0.40
2018-01-18T09:02:23.554Z,0.40
2018-01-18T09:04:51.919Z,0.57
2018-01-18T09:07:45.993Z,0.47
2018-01-18T09:10:14.423Z,0.50
2018-01-18T09:12:42.767Z,0.60
2018-01-18T09:15:11.136Z,0.63
2018-01-18T09:17:39.443Z,0.43
2018-01-18T09:20:07.724Z,0.80
2018-01-18T09:28:36.337Z,0.50
2018-01-18T09:31:05.385Z,0.40
2018-01-18T09:33:33.668Z,0.70
2018-01-18T09:36:02.009Z,0.53
2018-01-18T09:38:31.080Z,0.50
2018-01-18T09:41:00.140Z,0.40
2018-01-18T09:43:29.215Z,0.63
2018-01-18T09:45:57.498Z,0.50
2018-01-18T09:48:25.869Z,0.40
2018-01-18T09:51:08.412Z,0.53
2018-01-18T09:53:37.657Z,0.57
2018-01-18T09:56:05.945Z,0.30
2018-01-18T09:58:34.304Z,0.60
2018-01-18T10:01:02.619Z,0.50
2018-01-18T10:03:30.953Z,0.40
2018-01-18T10:05:59.239Z,0.30
2018-01-18T10:08:27.564Z,0.47
2018-01-18T10:10:55.845Z,1.53
2018-01-18T10:13:24.189Z,0.60
2018-01-18T10:15:52.554Z,0.50
2018-01-18T10:18:21.651Z,0.40
2018-01-18T10:20:49.967Z,0.60
2018-01-18T10:23:18.317Z,0.40
2018-01-18T10:25:46.614Z,0.50
2018-01-18T10:28:14.941Z,0.70
2018-01-18T10:30:43.249Z,0.47
2018-01-18T10:33:11.597Z,0.40
2018-01-18T10:35:39.887Z,0.60
2018-01-18T10:38:08.976Z,0.30
2018-01-18T10:40:38.056Z,0.30
2018-01-18T10:43:06.377Z,0.50
2018-01-18T10:45:35.432Z,0.40
2018-01-18T10:48:03.748Z,0.40
2018-01-18T10:50:32.082Z,0.97
2018-01-18T10:53:00.414Z,1.03
2018-01-18T10:55:32.174Z,0.40
2018-01-18T10:58:00.465Z,0.50
2018-01-18T11:00:28.775Z,0.40
2018-01-18T11:02:57.056Z,0.33
2018-01-18T11:05:25.367Z,0.40
2018-01-18T11:07:53.686Z,0.40
2018-01-18T11:10:22.011Z,0.70
2018-01-18T11:12:50.348Z,0.53
2018-01-18T11:15:18.657Z,0.40
2018-01-18T11:17:46.951Z,0.33
2018-01-18T11:20:15.584Z,0.40
2018-01-18T11:22:43.924Z,0.37
2018-01-18T11:25:12.268Z,0.40
2018-01-18T11:27:40.588Z,0.30
2018-01-18T11:30:09.297Z,0.60
2018-01-18T11:32:38.506Z,0.40
2018-01-18T11:35:06.890Z,0.50
2018-01-18T11:37:35.197Z,0.60
2018-01-18T11:40:03.563Z,0.53
2018-01-18T11:42:32.087Z,0.83
2018-01-18T11:45:00.387Z,0.57
2018-01-18T11:47:28.714Z,0.43
2018-01-18T11:49:57.009Z,0.50
2018-01-18T11:52:25.323Z,0.53
2018-01-18T11:54:54.390Z,0.53
2018-01-18T11:57:25.167Z,0.90
2018-01-18T11:59:53.468Z,0.70
2018-01-18T12:02:22.550Z,0.50
2018-01-18T12:04:51.627Z,0.93
2018-01-18T12:07:19.960Z,1.07
2018-01-18T12:09:48.297Z,0.60
2018-01-18T12:12:16.639Z,0.80
2018-01-18T12:14:44.979Z,1.83
2018-01-18T12:17:13.296Z,1.13
2018-01-18T12:19:41.616Z,0.70
2018-01-18T12:22:09.928Z,1.20
2018-01-18T12:24:38.249Z,2.00
2018-01-18T12:27:06.564Z,0.80
2018-01-18T12:29:35.617Z,1.37
2018-01-18T12:32:03.939Z,1.20
2018-01-18T12:34:32.691Z,0.80
2018-01-18T12:37:01.123Z,1.63
2018-01-18T12:39:30.197Z,1.27
2018-01-18T12:42:00.046Z,0.90
2018-01-18T12:44:29.686Z,1.63
2018-01-18T12:46:57.979Z,0.83
2018-01-18T12:49:26.572Z,0.80
2018-01-18T12:51:55.657Z,0.80
2018-01-18T12:54:24.739Z,0.97
2018-01-18T12:56:54.020Z,0.73
2018-01-18T12:59:22.361Z,0.50
2018-01-18T13:01:50.734Z,1.63
2018-01-18T13:04:19.149Z,1.57
2018-01-18T13:06:47.437Z,0.40
2018-01-18T13:09:17.485Z,0.73
2018-01-18T13:11:45.823Z,0.83
2018-01-18T13:14:14.936Z,0.73
2018-01-18T13:16:43.287Z,0.83
2018-01-18T13:19:11.619Z,0.97
2018-01-18T13:21:39.929Z,0.73
2018-01-18T13:24:09.004Z,0.63
2018-01-18T13:26:38.061Z,0.73
2018-01-18T13:29:06.377Z,0.60
2018-01-18T13:31:34.684Z,1.63
2018-01-18T13:34:02.997Z,1.30
2018-01-18T13:36:31.280Z,0.60
2018-01-18T13:39:00.137Z,0.70
2018-01-18T13:41:29.429Z,0.77
2018-01-18T13:43:57.759Z,0.50
2018-01-18T13:46:26.069Z,0.50
2018-01-18T13:48:54.461Z,0.97
2018-01-18T13:51:22.752Z,0.33
2018-01-18T13:54:03.979Z,0.63
2018-01-18T13:56:47.411Z,0.50
2018-01-18T13:59:15.762Z,0.50
2018-01-18T14:01:44.110Z,0.87
2018-01-18T14:04:12.435Z,0.47
2018-01-18T14:06:41.484Z,0.50
2018-01-18T14:09:09.785Z,0.53
2018-01-18T14:11:38.839Z,0.43
2018-01-18T14:14:07.185Z,0.30
2018-01-18T14:16:36.408Z,0.40
2018-01-18T14:19:04.722Z,0.67
2018-01-18T14:21:33.787Z,0.93
2018-01-18T14:24:02.947Z,0.40
2018-01-18T14:26:31.237Z,0.50
2018-01-18T14:29:00.305Z,0.50
2018-01-18T14:31:28.619Z,0.43
2018-01-18T14:33:56.922Z,0.60
2018-01-18T14:36:25.259Z,0.57
2018-01-18T14:38:53.562Z,0.90
2018-01-18T14:41:21.869Z,0.90
2018-01-18T14:43:50.143Z,1.33
2018-01-18T14:46:18.444Z,1.00
2018-01-18T14:48:46.723Z,0.50
2018-01-18T14:51:15.048Z,0.80
2018-01-18T14:53:43.380Z,0.90
2018-01-18T14:56:11.707Z,0.50
2018-01-18T14:58:40.764Z,0.80
2018-01-18T15:01:09.088Z,0.70
2018-01-18T15:03:37.381Z,0.93
2018-01-18T15:06:06.476Z,1.00
2018-01-18T15:08:34.893Z,0.43
2018-01-18T15:11:03.947Z,0.40
2018-01-18T15:13:32.278Z,0.70
2018-01-18T15:16:00.625Z,0.97
2018-01-18T15:18:29.353Z,0.90
2018-01-18T15:20:59.180Z,0.60
2018-01-18T15:23:27.459Z,1.10
2018-01-18T15:25:55.812Z,0.50
2018-01-18T15:28:24.117Z,1.10
2018-01-18T15:30:53.196Z,0.63
2018-01-18T15:33:22.271Z,0.90
2018-01-18T15:35:51.331Z,0.60
2018-01-18T15:38:19.640Z,0.50
2018-01-18T15:40:47.992Z,0.60
2018-01-18T15:43:16.361Z,0.80
2018-01-18T15:45:44.736Z,0.90
2018-01-18T15:48:13.025Z,0.87
2018-01-18T15:50:41.308Z,1.00
2018-01-18T15:53:09.623Z,0.87
2018-01-18T15:55:37.900Z,0.70
2018-01-18T15:58:06.240Z,0.90
2018-01-18T16:00:35.391Z,0.87
2018-01-18T16:03:03.720Z,0.73
2018-01-18T16:05:32.073Z,0.77
2018-01-18T16:08:00.376Z,1.77
2018-01-18T16:10:28.710Z,1.07
2018-01-18T16:12:57.037Z,1.37
2018-01-18T16:15:25.365Z,1.83
2018-01-18T16:17:53.651Z,1.80
2018-01-18T16:20:23.330Z,1.00
2018-01-18T16:22:51.630Z,0.80
2018-01-18T16:25:19.943Z,0.70
2018-01-18T16:27:48.473Z,0.80
2018-01-18T16:30:17.057Z,0.50
2018-01-18T16:32:45.417Z,0.50
2018-01-18T16:35:14.486Z,0.50
2018-01-18T16:37:43.804Z,0.80
2018-01-18T16:40:12.246Z,0.40
2018-01-18T16:42:40.571Z,0.60
2018-01-18T16:45:09.223Z,0.60
2018-01-18T16:47:38.285Z,0.97
2018-01-18T16:50:06.889Z,1.37
2018-01-18T16:52:35.388Z,0.50
2018-01-18T16:55:04.487Z,0.73
2018-01-18T16:57:34.296Z,0.90
2018-01-18T17:00:02.608Z,0.70
2018-01-18T17:02:30.937Z,0.70
2018-01-18T17:04:59.257Z,0.70
2018-01-18T17:07:27.544Z,1.30
2018-01-18T17:09:55.982Z,0.63
2018-01-18T17:12:24.272Z,1.07
2018-01-18T17:14:52.607Z,0.73
2018-01-18T17:17:20.916Z,0.70
2018-01-18T17:19:50.257Z,0.80
2018-01-18T17:22:19.633Z,0.70
2018-01-18T17:24:48.024Z,0.70
2018-01-18T17:27:16.535Z,0.97
2018-01-18T17:29:44.816Z,0.87
2018-01-18T17:32:13.194Z,1.40
2018-01-18T17:34:41.536Z,0.77
2018-01-18T17:37:09.872Z,0.70
2018-01-18T17:39:38.165Z,0.90
2018-01-18T17:42:07.855Z,0.50
2018-01-18T17:44:36.163Z,1.30
2018-01-18T17:47:04.649Z,0.80
2018-01-18T17:49:33.117Z,1.40
2018-01-18T17:52:02.284Z,0.60
2018-01-18T17:54:31.083Z,0.80
2018-01-18T17:56:59.379Z,1.10
2018-01-18T17:59:27.703Z,0.90
2018-01-18T18:01:56.096Z,0.97
2018-01-18T18:04:24.376Z,0.80
2018-01-18T18:06:52.704Z,1.40
2018-01-18T18:09:21.649Z,1.03
2018-01-18T18:11:49.985Z,1.33
2018-01-18T18:14:18.696Z,0.90
2018-01-18T18:16:47.008Z,1.10
2018-01-18T18:19:15.301Z,1.10
2018-01-18T18:21:44.142Z,0.90
2018-01-18T18:24:12.452Z,0.80
2018-01-18T18:26:41.516Z,1.07
2018-01-18T18:29:11.728Z,1.33
2018-01-18T18:31:40.259Z,0.80
2018-01-18T18:34:08.578Z,0.83
2018-01-18T18:36:36.881Z,0.87
2018-01-18T18:39:05.245Z,1.00
2018-01-18T18:41:33.543Z,0.70
2018-01-18T18:44:02.596Z,1.20
2018-01-18T18:46:30.916Z,1.60
2018-01-18T18:48:59.627Z,1.07
2018-01-18T18:51:28.725Z,0.90
2018-01-18T18:53:57.444Z,1.10
2018-01-18T18:56:25.772Z,1.27
2018-01-18T18:58:54.077Z,1.10
2018-01-18T19:01:23.260Z,1.10
2018-01-18T19:03:51.591Z,1.90
2018-01-18T19:06:19.873Z,1.03
2018-01-18T19:08:48.200Z,1.13
2018-01-18T19:11:16.538Z,1.33
2018-01-18T19:13:44.900Z,1.67
2018-01-18T19:16:13.193Z,1.40
2018-01-18T19:18:41.711Z,1.60
2018-01-18T19:21:10.857Z,1.30
2018-01-18T19:23:39.152Z,1.73
2018-01-18T19:26:07.483Z,2.80
2018-01-18T19:28:35.856Z,1.37
2018-01-18T19:31:04.266Z,1.47
2018-01-18T19:33:33.355Z,1.20
2018-01-18T19:36:02.443Z,1.20
2018-01-18T19:38:31.493Z,1.20
2018-01-18T19:40:59.820Z,1.20
2018-01-18T19:43:28.116Z,1.30
2018-01-18T19:45:58.127Z,12.47
2018-01-18T19:48:27.200Z,9.27
2018-01-18T19:50:56.350Z,6.47
2018-01-18T19:53:24.685Z,2.67
2018-01-18T19:55:53.736Z,1.30
2018-01-18T19:58:22.840Z,1.90
2018-01-18T20:00:51.330Z,1.80
2018-01-18T20:03:19.805Z,1.60
2018-01-18T20:05:48.117Z,1.50
2018-01-18T20:08:16.440Z,1.50
2018-01-18T20:10:44.780Z,2.03
2018-01-18T20:13:13.072Z,2.20
2018-01-18T20:15:41.429Z,1.50
2018-01-18T20:18:10.698Z,2.40
2018-01-18T20:20:39.861Z,2.17
2018-01-18T20:23:08.145Z,2.17
2018-01-18T20:25:37.437Z,2.77
2018-01-18T20:28:06.591Z,3.07
2018-01-18T20:30:35.673Z,3.00
2018-01-18T20:33:04.757Z,3.63
2018-01-18T20:35:34.660Z,3.17
2018-01-18T20:38:02.978Z,3.00
2018-01-18T20:40:31.299Z,3.43
2018-01-18T20:42:59.631Z,2.90
2018-01-18T20:45:29.010Z,2.80
2018-01-18T20:47:57.504Z,2.77
2018-01-18T20:50:25.793Z,2.20
2018-01-18T20:52:57.368Z,2.40
2018-01-18T20:55:26.346Z,1.73
2018-01-18T20:57:54.693Z,1.93
2018-01-18T21:00:23.786Z,2.23
2018-01-18T21:02:52.140Z,1.87
2018-01-18T21:05:20.665Z,2.27
2018-01-18T21:07:48.951Z,1.90
2018-01-18T21:10:17.264Z,2.00
2018-01-18T21:12:45.557Z,1.90
2018-01-18T21:15:13.876Z,1.87
2018-01-18T21:17:43.200Z,1.97
2018-01-18T21:20:12.373Z,2.30
2018-01-18T21:22:41.432Z,2.00
2018-01-18T21:25:09.795Z,1.77
2018-01-18T21:27:38.089Z,2.17
2018-01-18T21:30:06.579Z,2.00
2018-01-18T21:32:34.937Z,1.20
2018-01-18T21:35:03.218Z,1.87
2018-01-18T21:37:31.530Z,2.07
2018-01-18T21:39:59.872Z,2.20
2018-01-18T21:42:28.176Z,2.50
2018-01-18T21:44:56.496Z,2.43
2018-01-18T21:47:24.824Z,2.30
2018-01-18T21:49:53.124Z,1.97
2018-01-18T21:52:22.276Z,1.80
2018-01-18T21:54:50.562Z,2.17
2018-01-18T21:57:18.906Z,1.63
2018-01-18T21:59:48.532Z,1.83
2018-01-18T22:02:16.812Z,1.80
2018-01-18T22:04:45.130Z,2.33
2018-01-18T22:07:13.453Z,2.87
2018-01-18T22:09:42.513Z,1.67
2018-01-18T22:12:10.833Z,1.77
2018-01-18T22:14:39.130Z,2.27
2018-01-18T22:17:08.190Z,1.87
2018-01-18T22:19:36.509Z,2.17
2018-01-18T22:22:04.845Z,2.10
2018-01-18T22:24:33.880Z,1.83
2018-01-18T22:27:02.212Z,2.13
2018-01-18T22:29:30.492Z,2.30
2018-01-18T22:31:58.802Z,3.17
2018-01-18T22:34:27.144Z,2.30
2018-01-18T22:36:55.464Z,2.70
2018-01-18T22:39:23.782Z,2.30
2018-01-18T22:41:52.065Z,2.10
2018-01-18T22:44:20.455Z,2.70
2018-01-18T22:46:50.221Z,2.40
2018-01-18T22:49:18.573Z,2.37
2018-01-18T22:51:46.909Z,2.87
2018-01-18T22:54:15.220Z,2.27
2018-01-18T22:56:43.505Z,2.20
2018-01-18T22:59:11.847Z,2.47
2018-01-18T23:01:40.171Z,2.37
2018-01-18T23:04:09.292Z,2.00
2018-01-18T23:06:38.010Z,2.73
2018-01-18T23:09:06.606Z,2.20
2018-01-18T23:11:35.269Z,2.83
2018-01-18T23:14:03.609Z,2.57
2018-01-18T23:16:31.906Z,2.20
2018-01-18T23:19:00.213Z,2.20
2018-01-18T23:21:28.529Z,2.80
2018-01-18T23:23:56.857Z,2.97
2018-01-18T23:26:25.137Z,2.80
2018-01-18T23:28:54.325Z,2.67
2018-01-18T23:31:22.653Z,3.20
2018-01-18T23:33:51.728Z,3.10
2018-01-18T23:36:20.500Z,3.23
2018-01-18T23:38:48.810Z,3.20
2018-01-18T23:41:17.125Z,2.60
2018-01-18T23:43:45.454Z,2.70
2018-01-18T23:46:15.346Z,3.10
2018-01-18T23:48:44.755Z,3.40
2018-01-18T23:51:13.080Z,2.40
2018-01-18T23:53:41.373Z,2.43
2018-01-18T23:56:09.691Z,2.40
2018-01-18T23:58:38.010Z,2.43
